createdAt,value
2023-02-18T00:03:35.608Z,12.07
2023-02-18T00:08:38.607Z,11.07
2023-02-18T00:13:43.287Z,12.50
2023-02-18T00:18:46.229Z,10.97
2023-02-18T00:23:49.131Z,11.30
2023-02-18T00:28:54.377Z,11.37
2023-02-18T00:33:58.760Z,11.10
2023-02-18T00:39:08.271Z,11.20
2023-02-18T00:44:13.888Z,9.50
2023-02-18T00:49:17.799Z,10.20
2023-02-18T00:54:20.703Z,8.13
2023-02-18T00:59:24.981Z,7.50
2023-02-18T01:04:27.934Z,6.20
2023-02-18T01:09:31.362Z,6.57
2023-02-18T01:14:35.595Z,5.80
2023-02-18T01:19:38.484Z,6.77
2023-02-18T01:24:41.879Z,5.67
2023-02-18T01:29:46.212Z,9.13
2023-02-18T01:34:49.153Z,10.57
2023-02-18T01:39:52.039Z,8.07
2023-02-18T01:45:16.423Z,7.27
2023-02-18T01:50:19.472Z,5.67
2023-02-18T01:55:24.822Z,5.83
2023-02-18T02:00:29.383Z,3.30
2023-02-18T02:05:34.354Z,8.43
2023-02-18T02:10:48.861Z,3.17
2023-02-18T02:15:59.982Z,3.83
2023-02-18T02:21:40.512Z,3.40
2023-02-18T02:27:16.230Z,15.00
2023-02-18T02:32:58.633Z,4.70
2023-02-18T02:38:07.577Z,7.33
2023-02-18T02:43:19.305Z,7.77
2023-02-18T02:48:29.647Z,6.60
2023-02-18T02:53:36.557Z,9.70
2023-02-18T02:58:39.461Z,13.67
2023-02-18T03:04:20.666Z,6.97
2023-02-18T03:09:41.107Z,6.13
2023-02-18T03:14:54.634Z,4.50
2023-02-18T03:20:04.247Z,3.90
2023-02-18T03:25:12.284Z,6.90
2023-02-18T03:30:21.123Z,7.50
2023-02-18T03:35:25.286Z,10.33
2023-02-18T03:40:30.546Z,5.00
2023-02-18T03:45:34.605Z,8.13
2023-02-18T03:50:37.629Z,7.23
2023-02-18T03:55:42.645Z,6.17
2023-02-18T04:00:45.623Z,8.13
2023-02-18T04:05:48.891Z,7.17
2023-02-18T04:10:53.176Z,5.27
2023-02-18T04:15:56.262Z,13.23
2023-02-18T04:20:59.187Z,6.17
2023-02-18T04:26:03.466Z,9.30
2023-02-18T04:31:06.465Z,11.40
2023-02-18T04:36:10.576Z,8.13
2023-02-18T04:41:14.927Z,7.73
2023-02-18T04:46:17.905Z,11.87
2023-02-18T04:51:21.304Z,6.00
2023-02-18T04:56:25.597Z,12.90
2023-02-18T05:01:28.595Z,12.40
2023-02-18T05:06:31.630Z,6.87
2023-02-18T05:11:35.902Z,9.50
2023-02-18T05:16:38.791Z,13.23
2023-02-18T05:21:41.799Z,7.40
2023-02-18T05:26:46.554Z,19.00
2023-02-18T05:31:49.561Z,12.20
2023-02-18T05:36:53.153Z,10.83
2023-02-18T05:41:57.392Z,15.93
2023-02-18T05:47:01.723Z,15.13
2023-02-18T05:52:05.274Z,12.47
2023-02-18T05:57:09.509Z,11.53
2023-02-18T06:02:12.504Z,13.70
2023-02-18T06:07:15.396Z,10.23
2023-02-18T06:12:19.657Z,9.50
2023-02-18T06:17:22.747Z,13.63
2023-02-18T06:22:25.800Z,10.00
2023-02-18T06:27:30.090Z,13.33
2023-02-18T06:32:32.998Z,11.63
2023-02-18T06:37:35.894Z,14.37
2023-02-18T06:42:40.287Z,11.83
2023-02-18T06:47:43.246Z,11.63
2023-02-18T06:52:46.143Z,14.60
2023-02-18T06:57:50.457Z,13.90
2023-02-18T07:02:53.342Z,12.47
2023-02-18T07:07:57.297Z,17.63
2023-02-18T07:13:01.612Z,17.80
2023-02-18T07:18:04.767Z,13.20
2023-02-18T07:23:07.787Z,19.03
2023-02-18T07:28:12.047Z,14.70
2023-02-18T07:33:15.143Z,15.80
2023-02-18T07:38:18.069Z,14.53
2023-02-18T07:43:22.765Z,11.80
2023-02-18T07:48:25.684Z,13.47
2023-02-18T07:53:28.591Z,10.90
2023-02-18T07:58:35.549Z,11.80
2023-02-18T08:03:39.011Z,10.07
2023-02-18T08:08:41.873Z,11.33
2023-02-18T08:13:47.217Z,9.53
2023-02-18T08:18:50.724Z,12.50
2023-02-18T08:23:54.529Z,13.27
2023-02-18T08:28:58.816Z,10.73
2023-02-18T08:34:03.616Z,17.67
2023-02-18T08:39:06.561Z,14.87
2023-02-18T08:44:10.864Z,15.60
2023-02-18T08:49:13.823Z,12.47
2023-02-18T08:54:16.781Z,13.73
2023-02-18T08:59:21.086Z,8.80
2023-02-18T09:04:24.056Z,5.10
2023-02-18T09:09:26.978Z,3.93
2023-02-18T09:14:31.334Z,2.97
2023-02-18T09:19:34.240Z,3.30
2023-02-18T09:24:39.126Z,3.40
2023-02-18T09:29:44.352Z,4.70
2023-02-18T09:34:47.335Z,2.87
2023-02-18T09:39:50.442Z,2.10
2023-02-18T09:44:59.001Z,3.00
2023-02-18T09:50:07.837Z,3.20
2023-02-18T09:55:20.795Z,2.60
2023-02-18T10:00:31.810Z,1.90
2023-02-18T10:05:37.325Z,1.87
2023-02-18T10:10:43.214Z,1.67
2023-02-18T10:15:48.404Z,1.67
2023-02-18T10:20:53.376Z,1.50
2023-02-18T10:25:57.731Z,1.20
2023-02-18T10:31:08.518Z,1.33
2023-02-18T10:36:25.243Z,1.30
2023-02-18T10:41:39.127Z,1.60
2023-02-18T10:46:51.894Z,1.40
2023-02-18T10:51:58.989Z,1.33
2023-02-18T10:57:04.736Z,1.17
2023-02-18T11:02:18.623Z,1.10
2023-02-18T11:07:25.174Z,1.17
2023-02-18T11:12:31.424Z,1.43
2023-02-18T11:17:37.879Z,0.80
2023-02-18T11:22:41.557Z,0.87
2023-02-18T11:27:47.904Z,0.83
2023-02-18T11:32:56.818Z,1.33
2023-02-18T11:38:01.580Z,0.80
2023-02-18T11:43:07.421Z,1.00
2023-02-18T11:48:18.627Z,0.83
2023-02-18T11:53:29.550Z,1.00
2023-02-18T11:58:39.730Z,1.00
2023-02-18T12:03:49.472Z,2.60
2023-02-18T12:08:55.882Z,1.87
2023-02-18T12:14:00.020Z,1.60
2023-02-18T12:19:28.626Z,1.53
2023-02-18T12:24:53.894Z,1.80
2023-02-18T12:30:19.616Z,2.60
2023-02-18T12:35:42.101Z,2.50
2023-02-18T12:41:01.727Z,2.20
2023-02-18T12:46:28.826Z,3.47
2023-02-18T12:51:45.631Z,3.50
2023-02-18T12:57:10.399Z,2.80
2023-02-18T13:02:35.985Z,2.67
2023-02-18T13:08:12.197Z,5.33
2023-02-18T13:13:19.596Z,5.10
2023-02-18T13:18:27.709Z,2.27
2023-02-18T13:23:36.847Z,2.73
2023-02-18T13:28:45.094Z,1.70
2023-02-18T13:33:55.101Z,2.63
2023-02-18T13:39:08.397Z,2.60
2023-02-18T13:44:40.996Z,1.50
2023-02-18T13:49:44.019Z,1.77
2023-02-18T13:54:51.759Z,1.30
2023-02-18T13:59:59.784Z,1.67
2023-02-18T14:05:21.430Z,1.47
2023-02-18T14:10:35.751Z,2.80
2023-02-18T14:16:02.110Z,2.83
2023-02-18T14:21:19.304Z,1.40
2023-02-18T14:26:31.191Z,1.40
2023-02-18T14:31:55.412Z,5.37
2023-02-18T14:37:11.648Z,1.40
2023-02-18T14:42:25.810Z,1.80
2023-02-18T14:47:38.228Z,2.30
2023-02-18T14:52:46.561Z,3.30
2023-02-18T14:57:55.224Z,1.30
2023-02-18T15:02:58.180Z,2.20
2023-02-18T15:08:04.033Z,3.63
2023-02-18T15:13:15.004Z,2.10
2023-02-18T15:18:24.189Z,2.30
2023-02-18T15:23:27.136Z,2.30
2023-02-18T15:28:34.355Z,2.30
2023-02-18T15:33:37.387Z,1.60
2023-02-18T15:38:42.938Z,2.33
2023-02-18T15:43:55.912Z,2.60
2023-02-18T15:48:59.592Z,0.93
2023-02-18T15:54:05.806Z,1.03
2023-02-18T15:59:17.128Z,1.33
2023-02-18T16:04:22.032Z,0.90
2023-02-18T16:09:27.380Z,0.97
2023-02-18T16:14:36.101Z,1.37
2023-02-18T16:20:02.811Z,1.10
2023-02-18T16:25:17.549Z,1.70
2023-02-18T16:30:24.317Z,1.77
2023-02-18T16:35:32.691Z,1.10
2023-02-18T16:40:41.444Z,1.50
2023-02-18T16:45:49.868Z,1.10
2023-02-18T16:50:53.560Z,0.73
2023-02-18T16:55:56.983Z,2.13
2023-02-18T17:01:01.940Z,1.10
2023-02-18T17:06:05.379Z,1.10
2023-02-18T17:11:16.357Z,1.53
2023-02-18T17:16:21.227Z,1.33
2023-02-18T17:21:26.413Z,1.53
2023-02-18T17:26:30.777Z,1.33
2023-02-18T17:31:37.641Z,3.30
2023-02-18T17:36:45.313Z,2.00
2023-02-18T17:41:48.598Z,1.43
2023-02-18T17:46:54.872Z,1.67
2023-02-18T17:51:58.190Z,1.23
2023-02-18T17:57:01.231Z,1.17
2023-02-18T18:02:11.756Z,1.53
2023-02-18T18:07:14.942Z,1.23
2023-02-18T18:12:18.334Z,1.40
2023-02-18T18:17:22.660Z,1.67
2023-02-18T18:22:25.607Z,1.73
2023-02-18T18:27:28.584Z,1.40
2023-02-18T18:32:32.998Z,1.40
2023-02-18T18:37:36.001Z,2.60
2023-02-18T18:42:39.951Z,2.73
2023-02-18T18:47:44.545Z,2.50
2023-02-18T18:52:48.971Z,1.57
2023-02-18T18:57:51.968Z,2.03
2023-02-18T19:02:56.648Z,1.90
2023-02-18T19:08:00.121Z,2.30
2023-02-18T19:13:03.927Z,1.93
2023-02-18T19:18:08.979Z,2.20
2023-02-18T19:23:13.235Z,1.50
2023-02-18T19:28:16.291Z,2.57
2023-02-18T19:33:20.613Z,1.43
2023-02-18T19:38:23.564Z,1.47
2023-02-18T19:43:26.461Z,1.60
2023-02-18T19:48:30.781Z,3.37
2023-02-18T19:53:33.856Z,1.60
2023-02-18T19:58:37.403Z,1.70
2023-02-18T20:03:41.725Z,1.70
2023-02-18T20:08:44.709Z,1.40
2023-02-18T20:13:49.313Z,2.30
2023-02-18T20:18:53.990Z,1.60
2023-02-18T20:23:56.926Z,2.90
2023-02-18T20:29:00.117Z,2.27
2023-02-18T20:34:04.405Z,2.50
2023-02-18T20:39:15.644Z,2.10
2023-02-18T20:44:20.937Z,2.90
2023-02-18T20:49:25.373Z,3.40
2023-02-18T20:54:29.346Z,2.53
2023-02-18T20:59:33.388Z,3.67
2023-02-18T21:04:37.792Z,2.83
2023-02-18T21:09:40.954Z,5.10
2023-02-18T21:14:44.034Z,3.87
2023-02-18T21:19:48.335Z,3.80
2023-02-18T21:24:51.797Z,4.47
2023-02-18T21:29:55.047Z,3.00
2023-02-18T21:34:59.322Z,3.63
2023-02-18T21:40:02.254Z,2.90
2023-02-18T21:45:05.603Z,3.67
2023-02-18T21:50:10.810Z,3.30
2023-02-18T21:55:14.103Z,6.33
2023-02-18T22:00:20.964Z,4.30
2023-02-18T22:05:26.124Z,3.80
2023-02-18T22:10:29.061Z,4.57
2023-02-18T22:15:31.975Z,3.73
2023-02-18T22:20:36.231Z,4.47
2023-02-18T22:25:39.125Z,7.77
2023-02-18T22:30:42.111Z,7.37
2023-02-18T22:35:46.431Z,6.90
2023-02-18T22:40:50.926Z,4.13
2023-02-18T22:45:53.873Z,4.00
2023-02-18T22:50:58.186Z,3.47
2023-02-18T22:56:02.453Z,3.30
2023-02-18T23:01:07.016Z,3.37
2023-02-18T23:06:12.492Z,3.40
2023-02-18T23:11:18.864Z,3.00
2023-02-18T23:16:22.608Z,2.87
2023-02-18T23:21:26.859Z,4.20
2023-02-18T23:26:29.768Z,3.70
2023-02-18T23:31:37.705Z,3.90
2023-02-18T23:36:42.941Z,4.20
2023-02-18T23:41:46.662Z,3.10
2023-02-18T23:46:49.786Z,4.00
2023-02-18T23:51:55.688Z,3.60
2023-02-18T23:56:58.538Z,3.23
